EmailTwitter


Surface observations / Quebec / CYUL (71627)

Regions: Quebec | Canada | USA | Europe | France | UK | Elsewhere
Station
Display
Info & Location for CYUL (71627) | Help decoding METAR

Weather Conditions observed on 2019/02/16 at 08:00 UTC at MONTREAL INTL A, QB (CYUL)

Sky conditions: overcast.

Obstruction(s) to Vision: light snow showers.

Temperature: -2.0 Celsius.

Dewpoint: -7.0 Celsius.

Relative Humidity: 69%

Windchill Factor: -9.

Winds: Southwest at 28 km/h or 15 knots.

Mean Sea level Pressure: 100.53 kilopascals.

Altimeter Setting (QNH): 100.51 kilopascals or 29.68 inches of mercury.

Horizontal visibility: 15.00 statute miles or 24.00 kilometers.

Height of the Ceiling: 1463 metres ( 4800 feet ).

Coded METAR:

CYUL 160800Z 23015KT 15SM -SHSN OVC048 M02/M07 A2968 RMK SC8 CVCTV CLD EMBD

SLP053=